Time;durP1;ratioP1;P1;durP2;ratioP2;P2;SDS_P1;SDS_P2;PMS_P1;PMS_P2;Temp;Humidity;BMP_temperature;BMP_pressure;BME280_temperature;BME280_humidity;BME280_pressure;Samples;Min_cycle;Max_cycle;Signal;HPM_P1;HPM_P2
2022/12/16 00:00:07;;;;;;;38.90;20.77;;;;;;;-7.23;100.00;100441.72;4916985;29;20362;-80
2022/12/16 00:02:37;;;;;;;41.87;20.77;;;;;;;-7.09;100.00;100450.94;4936926;29;20394;-84
2022/12/16 00:05:13;;;;;;;41.63;18.97;;;;;;;-7.46;100.00;100451.78;4897055;29;20299;-83
2022/12/16 00:07:41;;;;;;;;;;;;;;;-7.55;100.00;100461.59;4913713;29;20299;-83
2022/12/16 00:10:08;;;;;;;38.40;18.53;;;;;;;-7.32;100.00;100466.94;4930396;29;19930;-82
2022/12/16 00:12:34;;;;;;;40.73;20.20;;;;;;;-7.41;100.00;100463.13;4930705;29;20371;-83
2022/12/16 00:15:01;;;;;;;39.90;20.50;;;;;;;-7.66;100.00;100460.19;4928428;29;20292;-84
2022/12/16 00:17:28;;;;;;;40.30;20.10;;;;;;;-7.61;100.00;100468.13;4911798;29;20722;-82
2022/12/16 00:19:54;;;;;;;40.57;18.80;;;;;;;-7.63;100.00;100467.16;4909344;29;20307;-80
2022/12/16 00:22:22;;;;;;;39.70;18.53;;;;;;;-7.80;100.00;100466.34;4948260;29;20292;-83
2022/12/16 00:24:48;;;;;;;41.53;18.60;;;;;;;-7.95;100.00;100462.19;4901119;29;20304;-82
2022/12/16 00:27:15;;;;;;;38.17;18.73;;;;;;;-8.05;100.00;100467.69;4952885;29;20311;-83
2022/12/16 00:29:46;;;;;;;38.67;19.30;;;;;;;-8.08;100.00;100470.06;4920228;29;20394;-82
2022/12/16 00:32:12;;;;;;;41.60;18.93;;;;;;;-7.92;100.00;100464.03;4934903;29;20307;-82
2022/12/16 00:34:41;;;;;;;35.50;17.67;;;;;;;-8.11;100.00;100459.66;4922353;29;20312;-82
2022/12/16 00:37:10;;;;;;;40.70;19.20;;;;;;;-8.23;100.00;100461.63;4934027;29;20293;-82
2022/12/16 00:39:37;;;;;;;34.07;17.13;;;;;;;-8.39;100.00;100466.81;4932433;29;20314;-82
2022/12/16 00:42:05;;;;;;;34.87;17.70;;;;;;;-8.24;100.00;100477.78;4916543;29;20335;-82
2022/12/16 00:44:37;;;;;;;35.47;17.90;;;;;;;-8.39;100.00;100477.94;4916245;29;20382;-82
2022/12/16 00:47:07;;;;;;;36.50;17.03;;;;;;;-8.45;100.00;100481.84;4920952;29;20302;-82
2022/12/16 00:49:34;;;;;;;35.13;18.23;;;;;;;-8.46;100.00;100480.09;4926650;29;20303;-82
2022/12/16 00:52:01;;;;;;;36.87;17.23;;;;;;;-8.52;100.00;100481.50;4928023;29;20332;-82
2022/12/16 00:54:28;;;;;;;39.27;17.60;;;;;;;-8.48;100.00;100481.69;4911686;29;20383;-81
2022/12/16 00:56:56;;;;;;;35.23;18.13;;;;;;;-8.66;100.00;100485.06;4911860;29;20294;-81
2022/12/16 00:59:23;;;;;;;37.93;17.00;;;;;;;-8.69;100.00;100482.31;4912700;29;20501;-82
2022/12/16 01:01:53;;;;;;;37.73;17.80;;;;;;;-8.78;100.00;100486.94;4906921;29;20452;-82
2022/12/16 01:04:25;;;;;;;35.33;16.40;;;;;;;-8.89;100.00;100486.38;4892007;29;20300;-81
2022/12/16 01:06:53;;;;;;;36.37;17.63;;;;;;;-8.96;100.00;100491.94;4904071;29;20622;-81
2022/12/16 01:09:20;;;;;;;38.37;18.03;;;;;;;-8.93;100.00;100493.78;4904285;29;20291;-82
2022/12/16 01:11:47;;;;;;;35.33;18.60;;;;;;;-8.98;100.00;100496.13;4924670;29;20286;-80
2022/12/16 01:14:14;;;;;;;38.70;17.17;;;;;;;-9.12;100.00;100503.03;4928968;29;20335;-82
2022/12/16 01:16:40;;;;;;;33.67;16.77;;;;;;;-9.15;100.00;100510.53;4917370;29;20706;-81
2022/12/16 01:19:07;;;;;;;31.53;15.67;;;;;;;-9.20;100.00;100509.41;4922204;29;20351;-81
2022/12/16 01:21:35;;;;;;;32.97;17.80;;;;;;;-9.18;100.00;100507.78;4907132;29;20661;-82
2022/12/16 01:24:01;;;;;;;34.83;17.30;;;;;;;-9.25;100.00;100513.34;4904586;29;20303;-81
2022/12/16 01:26:28;;;;;;;33.83;17.27;;;;;;;-9.15;100.00;100510.53;4925453;29;20777;-80
2022/12/16 01:28:55;;;;;;;36.57;16.83;;;;;;;-9.15;100.00;100510.53;4914640;29;20298;-80
2022/12/16 01:31:23;;;;;;;34.30;17.00;;;;;;;-9.36;100.00;100512.78;4917772;29;20307;-81
2022/12/16 01:33:49;;;;;;;32.33;16.00;;;;;;;-9.42;100.00;100509.84;4909783;29;20330;-80
2022/12/16 01:36:16;;;;;;;36.93;16.67;;;;;;;-9.39;100.00;100517.72;4908192;29;20309;-80
2022/12/16 01:38:45;;;;;;;35.37;16.70;;;;;;;-9.32;100.00;100524.06;4917701;29;20351;-80
2022/12/16 01:41:12;;;;;;;38.00;16.67;;;;;;;-9.26;100.00;100513.28;4925230;29;20303;-80
2022/12/16 01:43:40;;;;;;;29.53;15.00;;;;;;;-9.21;100.00;100517.00;4927902;29;20303;-81
2022/12/16 01:46:08;;;;;;;32.57;16.43;;;;;;;-9.26;100.00;100510.72;4925316;29;20373;-80
2022/12/16 01:48:51;;;;;;;32.97;15.50;;;;;;;-9.57;100.00;100506.47;4926179;29;21986;-81
2022/12/16 01:51:25;;;;;;;35.23;17.03;;;;;;;-9.53;100.00;100510.06;4921710;29;20728;-81
2022/12/16 01:53:56;;;;;;;35.33;16.27;;;;;;;-9.27;100.00;100514.09;4912299;29;20303;-81
2022/12/16 01:56:24;;;;;;;34.40;16.53;;;;;;;-9.34;100.00;100523.09;4919920;29;20287;-80
2022/12/16 01:58:51;;;;;;;33.20;15.33;;;;;;;-9.41;100.00;100516.75;4920940;29;20312;-80
2022/12/16 02:01:17;;;;;;;36.23;15.63;;;;;;;-9.38;100.00;100508.38;4919657;29;20291;-81
2022/12/16 02:03:45;;;;;;;30.70;16.27;;;;;;;-9.42;100.00;100511.53;4920054;29;20297;-79
2022/12/16 02:06:12;;;;;;;31.23;16.40;;;;;;;-9.69;100.00;100519.41;4921098;29;20304;-82
2022/12/16 02:08:39;;;;;;;33.60;16.03;;;;;;;-9.79;100.00;100517.13;4902644;29;20301;-80
2022/12/16 02:11:27;;;;;;;34.80;17.40;;;;;;;-9.76;100.00;100517.28;4902762;29;20355;-81
2022/12/16 02:14:00;;;;;;;36.00;17.80;;;;;;;-9.88;100.00;100519.13;4933216;28;20297;-81
2022/12/16 02:16:58;;;;;;;30.20;14.87;;;;;;;-9.81;100.00;100518.72;4920557;29;20714;-80
2022/12/16 02:20:05;;;;;;;31.60;16.00;;;;;;;-9.56;100.00;100513.34;4908998;29;20310;-79
2022/12/16 02:22:56;;;;;;;31.93;15.57;;;;;;;-9.58;100.00;100524.25;4918101;29;20303;-80
2022/12/16 02:25:45;;;;;;;28.67;15.80;;;;;;;-9.86;100.00;100526.91;4932757;29;20315;-81
2022/12/16 02:28:31;;;;;;;34.37;14.53;;;;;;;-9.87;100.00;100523.47;4871203;29;20319;-82
2022/12/16 02:31:07;;;;;;;29.93;15.50;;;;;;;-9.94;100.00;100516.22;4912405;29;20335;-81
2022/12/16 02:34:08;;;;;;;34.47;14.97;;;;;;;-9.94;100.00;100506.00;4892931;29;20334;-81
2022/12/16 02:37:11;;;;;;;31.80;16.37;;;;;;;-9.93;100.00;100512.88;4907445;29;20843;-81
2022/12/16 02:39:59;;;;;;;35.83;16.27;;;;;;;-9.89;100.00;100517.38;4914352;29;20392;-81
2022/12/16 02:42:30;;;;;;;35.53;15.97;;;;;;;-9.88;100.00;100516.59;4923360;29;20299;-82
2022/12/16 02:45:12;;;;;;;29.57;15.07;;;;;;;-9.83;100.00;100514.31;4899528;29;20328;-81
2022/12/16 02:47:39;;;;;;;32.27;15.30;;;;;;;-9.87;100.00;100508.13;4916334;29;20291;-81
2022/12/16 02:50:25;;;;;;;31.93;16.37;;;;;;;-9.75;100.00;100508.84;4903178;29;20303;-81
2022/12/16 02:52:53;;;;;;;35.77;16.07;;;;;;;-9.67;100.00;100507.63;4918645;29;20345;-81
2022/12/16 02:55:28;;;;;;;31.07;15.30;;;;;;;-9.89;100.00;100504.59;4917513;29;20883;-81
2022/12/16 02:58:03;;;;;;;27.40;15.47;;;;;;;-10.18;100.00;100504.56;4914764;29;20315;-81
2022/12/16 03:00:48;;;;;;;33.13;14.87;;;;;;;-10.23;100.00;100504.34;4919250;29;20287;-81
2022/12/16 03:03:23;;;;;;;43.40;18.35;;;;;;;-10.26;100.00;100501.56;4903852;29;20299;-80
2022/12/16 03:05:51;;;;;;;305.50;108.63;;;;;;;-10.14;100.00;100499.72;4917436;29;20091;-81
2022/12/16 03:08:22;;;;;;;350.47;132.60;;;;;;;-10.26;100.00;100494.78;4918899;29;20291;-81
2022/12/16 03:10:56;;;;;;;93.37;39.60;;;;;;;-10.35;100.00;100491.69;4922698;29;20341;-81
2022/12/16 03:13:23;;;;;;;49.55;21.77;;;;;;;-10.33;100.00;100497.81;4908203;29;20299;-81
2022/12/16 03:15:52;;;;;;;47.00;21.33;;;;;;;-10.36;100.00;100494.16;4895785;29;20094;-81
2022/12/16 03:18:27;;;;;;;42.33;18.50;;;;;;;-10.41;100.00;100491.34;4917389;29;20327;-82
2022/12/16 03:20:59;;;;;;;34.53;16.97;;;;;;;-10.40;100.00;100494.78;4909816;29;20299;-80
2022/12/16 03:23:32;;;;;;;30.67;14.85;;;;;;;-10.38;100.00;100480.44;4893617;29;20351;-79
2022/12/16 03:26:05;;;;;;;31.20;14.93;;;;;;;-10.45;100.00;100491.94;4921211;29;20043;-80
2022/12/16 03:28:31;;;;;;;29.87;14.87;;;;;;;-10.48;100.00;100481.56;4909760;29;20299;-79
2022/12/16 03:31:11;;;;;;;30.93;15.33;;;;;;;-10.44;100.00;100497.94;4949315;29;20295;-79
2022/12/16 03:33:44;;;;;;;29.77;14.90;;;;;;;-10.39;100.00;100491.44;4915526;29;20386;-80
2022/12/16 03:36:20;;;;;;;33.37;15.67;;;;;;;-10.45;100.00;100489.38;4936852;29;20677;-79
2022/12/16 03:38:47;;;;;;;35.20;15.37;;;;;;;-10.46;100.00;100490.19;4906123;29;20287;-80
2022/12/16 03:41:17;;;;;;;31.57;14.20;;;;;;;-10.49;100.00;100499.34;4892902;29;20300;-78
2022/12/16 03:43:44;;;;;;;39.37;15.63;;;;;;;-10.49;100.00;100491.69;4907644;29;20592;-78
2022/12/16 03:46:15;;;;;;;39.43;16.67;;;;;;;-10.43;100.00;100486.91;4925307;29;20295;-78
2022/12/16 03:48:53;;;;;;;33.97;15.60;;;;;;;-10.33;100.00;100486.72;4905820;29;20295;-80
2022/12/16 03:51:20;;;;;;;38.00;16.30;;;;;;;-10.52;100.00;100485.56;4902783;29;21002;-79
2022/12/16 03:53:46;;;;;;;38.33;16.37;;;;;;;-10.43;100.00;100484.38;4913057;29;20319;-79
2022/12/16 03:56:13;;;;;;;33.23;15.47;;;;;;;-10.64;100.00;100489.97;4927237;29;20823;-80
2022/12/16 03:58:40;;;;;;;35.27;14.57;;;;;;;-10.61;100.00;100485.03;4946820;29;20320;-79
2022/12/16 04:01:08;;;;;;;31.50;14.50;;;;;;;-10.67;100.00;100487.22;4910855;28;20303;-79
2022/12/16 04:03:36;;;;;;;32.50;15.07;;;;;;;-10.79;100.00;100481.38;4924640;29;20795;-81
2022/12/16 04:06:03;;;;;;;27.87;14.43;;;;;;;-11.00;100.00;100482.63;4914444;29;20393;-79
2022/12/16 04:08:31;;;;;;;28.23;14.30;;;;;;;-10.87;100.00;100483.44;4916347;29;20338;-80
2022/12/16 04:25:29;;;;;;;29.90;14.77;;;;;;;-11.10;100.00;100502.44;4935698;29;20303;-80
2022/12/16 04:27:57;;;;;;;32.17;14.90;;;;;;;-11.07;100.00;100504.28;4926065;29;20828;-81
2022/12/16 04:30:26;;;;;;;30.23;14.67;;;;;;;-11.20;100.00;100511.94;4908098;29;20047;-79
